createdAt,value
2023-12-26T00:02:18.162Z,58.70
2023-12-26T00:04:44.926Z,58.70
2023-12-26T00:07:11.737Z,58.70
2023-12-26T00:09:42.165Z,58.70
2023-12-26T00:12:09.294Z,58.70
2023-12-26T00:14:36.193Z,58.60
2023-12-26T00:17:03.017Z,58.50
2023-12-26T00:19:29.893Z,58.50
2023-12-26T00:21:56.911Z,58.50
2023-12-26T00:24:23.673Z,58.50
2023-12-26T00:26:50.541Z,58.50
2023-12-26T00:29:17.258Z,58.40
2023-12-26T00:31:44.857Z,58.40
2023-12-26T00:34:11.800Z,58.40
2023-12-26T00:36:38.662Z,58.40
2023-12-26T00:39:05.737Z,58.40
2023-12-26T00:41:32.681Z,58.90
2023-12-26T00:43:59.473Z,58.40
2023-12-26T00:46:26.464Z,58.30
2023-12-26T00:48:53.436Z,57.70
2023-12-26T00:51:20.372Z,58.20
2023-12-26T00:53:47.460Z,58.10
2023-12-26T00:56:14.496Z,58.10
2023-12-26T00:58:41.330Z,58.10
2023-12-26T01:01:08.256Z,58.20
2023-12-26T01:03:35.154Z,58.10
2023-12-26T01:06:01.989Z,58.20
2023-12-26T01:08:28.707Z,58.20
2023-12-26T01:10:55.552Z,58.20
2023-12-26T01:13:22.272Z,58.10
2023-12-26T01:15:48.978Z,58.10
2023-12-26T01:20:43.397Z,57.60
2023-12-26T01:23:10.203Z,58.10
2023-12-26T01:25:37.016Z,58.00
2023-12-26T01:28:03.992Z,58.10
2023-12-26T01:30:30.849Z,58.00
2023-12-26T01:32:58.541Z,58.00
2023-12-26T01:35:25.367Z,58.00
2023-12-26T01:37:52.824Z,57.40
2023-12-26T01:40:19.571Z,58.00
2023-12-26T01:42:48.160Z,57.90
2023-12-26T01:45:15.568Z,57.90
2023-12-26T01:47:46.973Z,57.90
2023-12-26T01:50:15.705Z,57.90
2023-12-26T01:52:42.986Z,57.90
2023-12-26T01:55:12.931Z,57.80
2023-12-26T01:57:40.729Z,57.80
2023-12-26T02:00:08.562Z,57.90
2023-12-26T02:02:35.611Z,57.90
2023-12-26T02:05:03.378Z,57.80
2023-12-26T02:07:30.525Z,57.80
2023-12-26T02:09:57.464Z,57.80
2023-12-26T02:12:24.349Z,57.80
2023-12-26T02:14:51.240Z,57.90
2023-12-26T02:17:24.550Z,57.80
2023-12-26T02:19:51.320Z,57.90
2023-12-26T02:22:18.229Z,57.80
2023-12-26T02:24:45.345Z,57.80
2023-12-26T02:27:30.196Z,57.20
2023-12-26T02:29:58.765Z,57.80
2023-12-26T02:32:29.389Z,57.70
2023-12-26T02:34:56.956Z,57.70
2023-12-26T02:37:25.735Z,57.20
2023-12-26T02:39:52.690Z,57.70
2023-12-26T02:42:20.800Z,57.70
2023-12-26T02:44:48.175Z,57.70
2023-12-26T02:47:16.210Z,57.60
2023-12-26T02:49:43.114Z,57.10
2023-12-26T02:52:09.957Z,57.70
2023-12-26T02:54:37.164Z,57.60
2023-12-26T02:57:04.100Z,57.10
2023-12-26T02:59:30.927Z,57.70
2023-12-26T03:01:58.981Z,57.60
2023-12-26T03:04:27.183Z,57.60
2023-12-26T03:06:54.634Z,57.60
2023-12-26T03:09:21.738Z,57.60
2023-12-26T03:11:48.541Z,57.70
2023-12-26T03:14:16.465Z,57.60
2023-12-26T03:16:43.229Z,57.60
2023-12-26T03:19:10.189Z,57.60
2023-12-26T03:21:37.025Z,57.60
2023-12-26T03:24:03.863Z,57.60
2023-12-26T03:26:30.615Z,57.50
2023-12-26T03:28:57.297Z,57.00
2023-12-26T03:31:24.017Z,57.40
2023-12-26T03:33:50.756Z,57.00
2023-12-26T03:36:17.934Z,57.40
2023-12-26T03:38:46.938Z,57.60
2023-12-26T03:41:14.612Z,57.60
2023-12-26T03:43:41.377Z,57.40
2023-12-26T03:46:08.338Z,57.50
2023-12-26T03:48:35.150Z,57.00
2023-12-26T03:51:02.015Z,57.40
2023-12-26T03:53:28.765Z,57.40
2023-12-26T03:55:55.463Z,57.30
2023-12-26T03:58:22.124Z,57.40
2023-12-26T04:00:48.834Z,57.40
2023-12-26T04:03:16.673Z,57.40
2023-12-26T04:05:43.525Z,57.30
2023-12-26T04:08:11.330Z,56.70
2023-12-26T04:10:38.111Z,57.30
2023-12-26T04:13:04.920Z,57.20
2023-12-26T04:15:31.673Z,57.20
2023-12-26T04:17:59.811Z,56.60
2023-12-26T04:20:26.682Z,57.10
2023-12-26T04:22:53.515Z,57.20
2023-12-26T04:25:21.565Z,57.20
2023-12-26T04:27:48.289Z,56.70
2023-12-26T04:30:17.442Z,57.10
2023-12-26T04:32:44.317Z,57.10
2023-12-26T04:35:11.156Z,57.10
2023-12-26T04:37:40.367Z,57.10
2023-12-26T04:40:08.234Z,56.60
2023-12-26T04:42:34.910Z,57.00
2023-12-26T04:45:01.713Z,57.10
2023-12-26T04:47:29.819Z,57.10
2023-12-26T04:49:56.617Z,57.00
2023-12-26T04:52:23.347Z,57.00
2023-12-26T04:54:50.129Z,57.10
2023-12-26T04:57:17.002Z,57.10
2023-12-26T04:59:43.881Z,57.10
2023-12-26T05:02:10.578Z,57.00
2023-12-26T05:04:39.410Z,57.00
2023-12-26T05:07:06.919Z,57.00
2023-12-26T05:09:33.590Z,57.00
2023-12-26T05:12:00.772Z,57.20
2023-12-26T05:14:27.541Z,57.00
2023-12-26T05:16:55.057Z,57.10
2023-12-26T05:19:22.170Z,57.00
2023-12-26T05:21:49.000Z,57.10
2023-12-26T05:24:15.938Z,57.10
2023-12-26T05:26:43.981Z,57.00
2023-12-26T05:29:11.893Z,57.10
2023-12-26T05:31:41.915Z,57.00
2023-12-26T05:34:09.719Z,57.00
2023-12-26T05:36:37.617Z,57.10
2023-12-26T05:39:05.231Z,57.10
2023-12-26T05:41:32.110Z,57.10
2023-12-26T05:43:58.991Z,57.10
2023-12-26T05:46:30.058Z,57.10
2023-12-26T05:48:57.850Z,57.10
2023-12-26T05:51:26.365Z,57.10
2023-12-26T05:53:53.322Z,57.10
2023-12-26T05:56:20.962Z,57.10
2023-12-26T05:58:47.698Z,57.10
2023-12-26T06:01:14.561Z,57.10
2023-12-26T06:03:41.382Z,57.10
2023-12-26T06:06:13.105Z,57.10
2023-12-26T06:08:41.114Z,57.00
2023-12-26T06:11:09.293Z,57.00
2023-12-26T06:13:36.092Z,57.10
2023-12-26T06:16:03.062Z,57.10
2023-12-26T06:18:30.010Z,57.00
2023-12-26T06:20:57.038Z,57.10
2023-12-26T06:23:23.802Z,57.10
2023-12-26T06:25:50.534Z,57.10
2023-12-26T06:28:17.203Z,57.10
2023-12-26T06:30:44.608Z,57.10
2023-12-26T06:33:11.619Z,57.10
2023-12-26T06:35:40.006Z,57.20
2023-12-26T06:38:13.312Z,57.80
2023-12-26T06:40:41.473Z,57.20
2023-12-26T06:43:10.108Z,57.60
2023-12-26T06:45:37.595Z,57.20
2023-12-26T06:48:04.939Z,57.20
2023-12-26T06:50:31.823Z,57.20
2023-12-26T06:52:58.718Z,57.20
2023-12-26T06:55:25.642Z,57.20
2023-12-26T06:57:52.335Z,57.30
2023-12-26T07:00:19.724Z,56.80
2023-12-26T07:02:46.552Z,57.30
2023-12-26T07:05:13.280Z,57.30
2023-12-26T07:07:40.005Z,57.40
2023-12-26T07:10:07.099Z,57.30
2023-12-26T07:12:33.804Z,57.40
2023-12-26T07:15:00.601Z,57.40
2023-12-26T07:17:27.431Z,57.40
2023-12-26T07:19:54.215Z,57.40
2023-12-26T07:22:20.904Z,57.40
2023-12-26T07:24:47.616Z,57.40
2023-12-26T07:27:14.433Z,57.40
2023-12-26T07:29:41.332Z,57.50
2023-12-26T07:32:08.055Z,58.00
2023-12-26T07:34:34.905Z,57.50
2023-12-26T07:37:01.704Z,57.50
2023-12-26T07:39:31.091Z,57.60
2023-12-26T07:41:57.988Z,57.60
2023-12-26T07:44:24.753Z,57.60
2023-12-26T07:46:51.449Z,57.60
2023-12-26T07:49:18.238Z,57.70
2023-12-26T07:51:46.772Z,57.70
2023-12-26T07:54:13.737Z,57.70
2023-12-26T07:56:40.657Z,57.70
2023-12-26T07:59:07.421Z,57.70
2023-12-26T08:01:34.293Z,57.70
2023-12-26T08:04:01.094Z,57.80
2023-12-26T08:06:30.819Z,57.80
2023-12-26T08:08:59.338Z,57.30
2023-12-26T08:11:26.212Z,57.90
2023-12-26T08:13:53.972Z,57.80
2023-12-26T08:16:20.670Z,57.90
2023-12-26T08:18:47.443Z,58.00
2023-12-26T08:21:14.297Z,57.90
2023-12-26T08:23:41.054Z,57.90
2023-12-26T08:26:08.256Z,58.00
2023-12-26T08:28:35.258Z,58.00
2023-12-26T08:31:02.088Z,58.00
2023-12-26T08:33:30.953Z,58.20
2023-12-26T08:35:57.903Z,58.00
2023-12-26T08:38:24.726Z,58.10
2023-12-26T08:40:51.852Z,58.10
2023-12-26T08:43:18.623Z,58.30
2023-12-26T08:45:45.359Z,58.20
2023-12-26T08:48:12.493Z,58.20
2023-12-26T08:50:39.320Z,58.10
2023-12-26T08:53:06.190Z,58.20
2023-12-26T08:55:33.112Z,58.20
2023-12-26T08:57:59.794Z,57.60
2023-12-26T09:00:26.511Z,58.10
2023-12-26T09:03:00.186Z,58.20
2023-12-26T09:05:33.379Z,56.10
2023-12-26T09:08:00.202Z,58.20
2023-12-26T09:10:26.941Z,58.20
2023-12-26T09:12:53.811Z,58.20
2023-12-26T09:15:20.631Z,58.50
2023-12-26T09:17:47.460Z,58.20
2023-12-26T09:20:14.263Z,58.30
2023-12-26T09:22:42.995Z,58.30
2023-12-26T09:25:11.101Z,58.30
2023-12-26T09:27:38.316Z,58.30
2023-12-26T09:30:05.583Z,58.30
2023-12-26T09:32:32.558Z,58.30
2023-12-26T09:34:59.383Z,58.30
2023-12-26T09:37:26.050Z,58.30
2023-12-26T09:39:52.808Z,58.30
2023-12-26T09:42:26.175Z,58.30
2023-12-26T09:44:54.641Z,58.30
2023-12-26T09:47:24.099Z,58.30
2023-12-26T09:49:51.650Z,58.40
2023-12-26T09:52:18.646Z,58.30
2023-12-26T09:54:48.687Z,58.30
2023-12-26T09:57:16.101Z,58.20
2023-12-26T09:59:44.185Z,58.70
2023-12-26T10:02:14.088Z,59.00
2023-12-26T10:04:41.372Z,59.00
2023-12-26T10:07:08.244Z,59.20
2023-12-26T10:09:35.166Z,59.40
2023-12-26T10:12:01.974Z,59.30
2023-12-26T10:14:32.001Z,60.10
2023-12-26T10:16:59.662Z,59.70
2023-12-26T10:19:27.114Z,59.70
2023-12-26T10:21:54.516Z,59.80
2023-12-26T10:24:22.136Z,59.90
2023-12-26T10:26:49.163Z,59.90
2023-12-26T10:29:16.422Z,59.30
2023-12-26T10:31:44.036Z,59.80
2023-12-26T10:34:21.369Z,59.80
2023-12-26T10:36:49.836Z,59.90
2023-12-26T10:39:17.566Z,59.90
2023-12-26T10:41:46.352Z,59.80
2023-12-26T10:44:15.432Z,59.80
2023-12-26T10:46:46.307Z,59.20
2023-12-26T10:49:22.732Z,59.80
2023-12-26T10:51:51.791Z,59.80
2023-12-26T10:54:25.125Z,59.70
2023-12-26T10:56:53.701Z,59.70
2023-12-26T11:00:16.767Z,59.70
2023-12-26T11:03:39.976Z,59.70
2023-12-26T11:07:03.140Z,59.70
2023-12-26T11:10:26.047Z,59.40
2023-12-26T11:13:48.750Z,59.40
2023-12-26T11:17:11.666Z,59.20
2023-12-26T11:20:34.363Z,59.20
2023-12-26T11:23:57.156Z,59.30
2023-12-26T11:27:20.382Z,59.40
2023-12-26T11:30:46.034Z,59.30
2023-12-26T11:34:09.266Z,59.40
2023-12-26T11:37:32.589Z,58.80
2023-12-26T11:40:55.565Z,59.30
2023-12-26T11:44:18.215Z,59.20
2023-12-26T11:47:41.335Z,59.20
2023-12-26T11:51:04.306Z,59.20
2023-12-26T11:54:27.200Z,59.20
2023-12-26T11:57:50.354Z,59.20
2023-12-26T12:01:13.476Z,58.60
2023-12-26T12:04:36.293Z,59.20
2023-12-26T12:07:59.606Z,59.30
2023-12-26T12:11:22.354Z,59.40
2023-12-26T12:14:45.222Z,60.30
2023-12-26T12:18:08.092Z,59.30
2023-12-26T12:21:31.260Z,59.30
2023-12-26T12:24:55.132Z,59.20
2023-12-26T12:28:19.344Z,59.30
2023-12-26T12:31:42.768Z,59.40
2023-12-26T12:35:05.694Z,58.80
2023-12-26T12:38:28.784Z,59.20
2023-12-26T12:41:51.619Z,58.80
2023-12-26T12:45:14.345Z,58.90
2023-12-26T12:48:37.504Z,59.50
2023-12-26T12:52:00.811Z,59.40
2023-12-26T12:55:26.591Z,59.00
2023-12-26T12:58:50.793Z,59.40
2023-12-26T13:02:14.050Z,58.90
2023-12-26T13:05:37.297Z,59.30
2023-12-26T13:09:00.302Z,59.40
2023-12-26T13:12:23.701Z,59.00
2023-12-26T13:15:47.132Z,59.40
2023-12-26T13:19:10.126Z,59.00
2023-12-26T13:22:33.236Z,59.40
2023-12-26T13:25:56.341Z,59.40
2023-12-26T13:29:19.020Z,59.50
2023-12-26T13:32:42.147Z,59.40
2023-12-26T13:36:05.005Z,59.00
2023-12-26T13:39:27.866Z,59.50
2023-12-26T13:42:50.950Z,59.60
2023-12-26T13:46:13.742Z,59.60
2023-12-26T13:49:36.676Z,59.60
2023-12-26T13:52:03.486Z,59.90
2023-12-26T13:54:30.624Z,60.00
2023-12-26T13:56:57.482Z,60.10
2023-12-26T13:59:24.200Z,59.90
2023-12-26T14:01:50.875Z,60.40
2023-12-26T14:04:17.843Z,60.70
2023-12-26T14:06:47.746Z,60.40
2023-12-26T14:09:14.551Z,60.60
2023-12-26T14:11:41.264Z,60.80
2023-12-26T14:14:07.954Z,61.00
2023-12-26T14:16:34.727Z,61.00
2023-12-26T14:19:01.598Z,60.20
2023-12-26T14:21:28.661Z,60.80
2023-12-26T14:23:55.621Z,60.70
2023-12-26T14:26:22.411Z,60.90
2023-12-26T14:28:49.092Z,60.80
2023-12-26T14:31:15.851Z,60.90
2023-12-26T14:33:42.973Z,60.90
2023-12-26T14:36:10.337Z,60.30
2023-12-26T14:38:37.323Z,60.90
2023-12-26T14:41:05.618Z,60.90
2023-12-26T14:43:32.977Z,60.80
2023-12-26T14:45:59.933Z,60.10
2023-12-26T14:48:26.852Z,60.80
2023-12-26T14:50:53.853Z,60.60
2023-12-26T14:53:20.773Z,60.70
2023-12-26T14:55:47.786Z,60.10
2023-12-26T14:58:14.745Z,60.70
2023-12-26T15:00:41.680Z,60.70
2023-12-26T15:03:10.447Z,60.50
2023-12-26T15:05:37.486Z,60.50
2023-12-26T15:08:04.819Z,60.50
2023-12-26T15:10:32.366Z,60.50
2023-12-26T15:13:01.260Z,60.60
2023-12-26T15:15:28.188Z,60.00
2023-12-26T15:17:55.353Z,60.50
2023-12-26T15:20:22.247Z,60.00
2023-12-26T15:22:49.756Z,60.60
2023-12-26T15:25:16.454Z,60.70
2023-12-26T15:27:43.303Z,60.00
2023-12-26T15:30:12.067Z,60.60
2023-12-26T15:32:39.074Z,60.60
2023-12-26T15:35:06.705Z,60.50
2023-12-26T15:37:33.552Z,60.30
2023-12-26T15:40:00.709Z,60.40
2023-12-26T15:42:27.987Z,60.50
2023-12-26T15:44:54.818Z,59.90
2023-12-26T15:47:23.396Z,60.50
2023-12-26T15:49:50.363Z,60.50
2023-12-26T15:52:17.231Z,60.70
2023-12-26T15:54:44.612Z,60.30
2023-12-26T15:57:11.460Z,60.80
2023-12-26T15:59:38.404Z,60.80
2023-12-26T16:02:05.881Z,60.80
2023-12-26T16:04:32.711Z,60.80
2023-12-26T16:06:59.745Z,60.80
2023-12-26T16:09:29.656Z,60.80
2023-12-26T16:11:57.697Z,60.70
2023-12-26T16:14:27.507Z,60.10
2023-12-26T16:16:54.599Z,60.10
2023-12-26T16:19:21.631Z,60.70
2023-12-26T16:21:48.753Z,60.60
2023-12-26T16:24:15.751Z,60.50
2023-12-26T16:26:44.726Z,60.50
2023-12-26T16:29:12.521Z,61.30
2023-12-26T16:31:39.840Z,60.50
2023-12-26T16:34:07.015Z,60.60
2023-12-26T16:36:34.232Z,60.70
2023-12-26T16:39:01.728Z,60.10
2023-12-26T16:41:28.569Z,60.60
2023-12-26T16:43:55.342Z,60.00
2023-12-26T16:46:22.812Z,60.70
2023-12-26T16:48:49.758Z,60.00
2023-12-26T16:51:16.593Z,60.00
2023-12-26T16:53:43.390Z,60.20
2023-12-26T16:56:11.337Z,60.60
2023-12-26T16:58:40.283Z,60.60
2023-12-26T17:01:07.613Z,60.70
2023-12-26T17:03:34.551Z,60.00
2023-12-26T17:06:03.013Z,60.00
2023-12-26T17:08:29.775Z,60.60
2023-12-26T17:10:57.362Z,60.60
2023-12-26T17:13:24.161Z,60.60
2023-12-26T17:15:50.868Z,60.70
2023-12-26T17:18:17.726Z,60.70
2023-12-26T17:20:44.469Z,60.80
2023-12-26T17:23:11.199Z,60.80
2023-12-26T17:25:43.460Z,60.70
2023-12-26T17:28:11.088Z,60.70
2023-12-26T17:30:38.423Z,60.70
2023-12-26T17:33:05.650Z,60.70
2023-12-26T17:35:32.779Z,60.70
2023-12-26T17:37:59.702Z,60.70
2023-12-26T17:40:26.449Z,60.80
2023-12-26T17:42:53.853Z,60.70
2023-12-26T17:45:20.704Z,60.20
2023-12-26T17:47:47.837Z,60.80
2023-12-26T17:50:14.789Z,60.80
2023-12-26T17:52:42.134Z,60.80
2023-12-26T17:55:09.221Z,60.80
2023-12-26T17:57:36.053Z,60.50
2023-12-26T18:00:04.100Z,61.20
2023-12-26T18:02:31.048Z,61.20
2023-12-26T18:04:57.928Z,61.20
2023-12-26T18:07:25.769Z,61.10
2023-12-26T18:09:53.277Z,61.20
2023-12-26T18:12:20.069Z,61.40
2023-12-26T18:14:46.823Z,61.50
2023-12-26T18:17:14.489Z,61.30
2023-12-26T18:19:41.617Z,61.30
2023-12-26T18:22:09.017Z,61.60
2023-12-26T18:24:35.781Z,61.70
2023-12-26T18:27:02.542Z,61.60
2023-12-26T18:29:29.260Z,61.90
2023-12-26T18:31:56.723Z,61.70
2023-12-26T18:34:23.829Z,61.90
2023-12-26T18:36:50.734Z,61.90
2023-12-26T18:39:17.494Z,61.90
2023-12-26T18:41:44.621Z,61.80
2023-12-26T18:44:11.380Z,61.90
2023-12-26T18:46:42.001Z,61.90
2023-12-26T18:49:13.454Z,62.10
2023-12-26T18:51:42.837Z,62.10
2023-12-26T18:54:10.223Z,62.20
2023-12-26T18:56:37.119Z,62.20
2023-12-26T18:59:04.272Z,62.20
2023-12-26T19:01:31.348Z,62.10
2023-12-26T19:03:58.643Z,62.20
2023-12-26T19:06:27.275Z,62.20
2023-12-26T19:08:55.482Z,61.60
2023-12-26T19:11:22.319Z,62.20
2023-12-26T19:13:49.044Z,62.20
2023-12-26T19:16:17.716Z,61.40
2023-12-26T19:18:44.744Z,62.20
2023-12-26T19:21:11.834Z,62.30
2023-12-26T19:23:38.631Z,61.70
2023-12-26T19:26:05.379Z,62.30
2023-12-26T19:28:32.175Z,62.10
2023-12-26T19:30:59.004Z,62.10
2023-12-26T19:33:26.375Z,62.20
2023-12-26T19:35:53.247Z,62.20
2023-12-26T19:38:21.070Z,62.20
2023-12-26T19:40:49.081Z,62.10
2023-12-26T19:43:15.787Z,62.10
2023-12-26T19:45:42.970Z,62.00
2023-12-26T19:48:10.348Z,62.00
2023-12-26T19:50:38.801Z,61.80
2023-12-26T19:53:05.893Z,62.00
2023-12-26T19:55:32.644Z,62.10
2023-12-26T19:57:59.832Z,62.10
2023-12-26T20:00:26.780Z,62.00
2023-12-26T20:02:53.631Z,61.50
2023-12-26T20:05:20.463Z,62.10
2023-12-26T20:07:47.353Z,61.40
2023-12-26T20:10:14.230Z,62.10
2023-12-26T20:12:41.155Z,62.00
2023-12-26T20:15:08.405Z,61.40
2023-12-26T20:17:35.465Z,62.00
2023-12-26T20:20:02.687Z,61.90
2023-12-26T20:22:29.495Z,61.30
2023-12-26T20:24:56.889Z,61.40
2023-12-26T20:27:23.715Z,61.90
2023-12-26T20:29:50.547Z,61.90
2023-12-26T20:32:17.350Z,61.90
2023-12-26T20:34:44.105Z,61.90
2023-12-26T20:37:10.929Z,61.90
2023-12-26T20:39:37.807Z,61.90
2023-12-26T20:42:05.860Z,61.90
2023-12-26T20:44:32.560Z,61.80
2023-12-26T20:46:59.208Z,62.00
2023-12-26T20:49:28.857Z,61.90
2023-12-26T20:51:57.876Z,61.90
2023-12-26T20:54:25.389Z,62.00
2023-12-26T20:56:52.912Z,62.00
2023-12-26T20:59:20.751Z,61.90
2023-12-26T21:01:48.585Z,62.00
2023-12-26T21:04:15.518Z,61.80
2023-12-26T21:06:42.235Z,61.80
2023-12-26T21:09:10.740Z,61.90
2023-12-26T21:11:43.736Z,61.80
2023-12-26T21:14:15.809Z,61.40
2023-12-26T21:16:43.384Z,61.80
2023-12-26T21:19:11.861Z,61.80
2023-12-26T21:21:39.310Z,61.90
2023-12-26T21:24:06.499Z,61.80
2023-12-26T21:26:33.324Z,61.70
2023-12-26T21:29:00.018Z,61.90
2023-12-26T21:31:28.497Z,61.80
2023-12-26T21:33:55.507Z,61.90
2023-12-26T21:36:24.508Z,61.00
2023-12-26T21:38:51.359Z,61.60
2023-12-26T21:41:19.065Z,61.70
2023-12-26T21:43:46.465Z,61.80
2023-12-26T21:46:13.621Z,61.90
2023-12-26T21:48:42.976Z,62.00
2023-12-26T21:51:14.452Z,62.00
2023-12-26T21:53:42.526Z,61.90
2023-12-26T21:56:11.703Z,61.40
2023-12-26T21:58:38.399Z,61.30
2023-12-26T22:01:08.214Z,61.90
2023-12-26T22:03:35.344Z,62.00
2023-12-26T22:06:02.191Z,61.90
2023-12-26T22:08:28.998Z,61.70
2023-12-26T22:10:55.637Z,61.70
2023-12-26T22:13:22.352Z,61.90
2023-12-26T22:15:49.387Z,60.80
2023-12-26T22:18:16.612Z,61.50
2023-12-26T22:20:44.332Z,61.40
2023-12-26T22:23:11.079Z,61.30
2023-12-26T22:25:37.807Z,61.20
2023-12-26T22:28:04.887Z,61.80
2023-12-26T22:30:33.405Z,61.90
2023-12-26T22:33:01.339Z,61.80
2023-12-26T22:35:28.785Z,61.90
2023-12-26T22:37:56.089Z,61.80
2023-12-26T22:40:23.569Z,61.80
2023-12-26T22:42:50.705Z,61.80
2023-12-26T22:45:17.723Z,61.20
2023-12-26T22:47:44.528Z,61.70
2023-12-26T22:50:11.422Z,61.70
2023-12-26T22:52:38.181Z,61.00
2023-12-26T22:55:05.639Z,61.60
2023-12-26T22:57:37.921Z,61.70
2023-12-26T23:00:08.784Z,61.60
2023-12-26T23:02:37.678Z,61.50
2023-12-26T23:05:06.716Z,60.90
2023-12-26T23:07:33.577Z,61.50
2023-12-26T23:10:00.564Z,61.50
2023-12-26T23:12:28.970Z,61.50
2023-12-26T23:14:55.786Z,61.40
2023-12-26T23:17:22.791Z,61.30
2023-12-26T23:19:50.244Z,61.40
2023-12-26T23:22:17.115Z,61.40
2023-12-26T23:24:43.999Z,61.40
2023-12-26T23:27:10.693Z,61.30
2023-12-26T23:29:37.371Z,61.30
2023-12-26T23:32:04.416Z,61.20
2023-12-26T23:34:43.704Z,61.10
2023-12-26T23:37:14.973Z,61.10
2023-12-26T23:39:45.587Z,61.10
2023-12-26T23:42:12.587Z,61.10
2023-12-26T23:44:40.345Z,60.40
2023-12-26T23:47:07.171Z,61.80
2023-12-26T23:49:34.181Z,61.10
2023-12-26T23:52:01.105Z,61.10
2023-12-26T23:54:28.287Z,60.40
2023-12-26T23:56:55.303Z,61.10
2023-12-26T23:59:22.018Z,61.00
